sensor_id;sensor_type;location;lat;lon;timestamp;P1;durP1;ratioP1;P2;durP2;ratioP2
39400;SDS011;54391;50.000;7.360;2023-07-13T00:01:51;4.40;;;1.90;;
39400;SDS011;54391;50.000;7.360;2023-07-13T00:04:19;3.15;;;1.90;;
39400;SDS011;54391;50.000;7.360;2023-07-13T00:06:49;4.45;;;2.38;;
39400;SDS011;54391;50.000;7.360;2023-07-13T00:09:17;3.58;;;1.80;;
39400;SDS011;54391;50.000;7.360;2023-07-13T00:11:44;4.47;;;2.20;;
39400;SDS011;54391;50.000;7.360;2023-07-13T00:14:13;3.22;;;2.15;;
39400;SDS011;54391;50.000;7.360;2023-07-13T00:16:41;3.40;;;2.15;;
39400;SDS011;54391;50.000;7.360;2023-07-13T00:19:09;4.28;;;2.13;;
39400;SDS011;54391;50.000;7.360;2023-07-13T00:21:37;6.13;;;2.10;;
39400;SDS011;54391;50.000;7.360;2023-07-13T00:24:06;4.63;;;2.05;;
39400;SDS011;54391;50.000;7.360;2023-07-13T00:26:34;5.25;;;2.00;;
39400;SDS011;54391;50.000;7.360;2023-07-13T00:29:01;4.13;;;1.70;;
39400;SDS011;54391;50.000;7.360;2023-07-13T00:31:28;2.17;;;1.98;;
39400;SDS011;54391;50.000;7.360;2023-07-13T00:33:56;3.90;;;1.98;;
39400;SDS011;54391;50.000;7.360;2023-07-13T00:36:24;3.58;;;2.15;;
39400;SDS011;54391;50.000;7.360;2023-07-13T00:38:51;5.22;;;2.50;;
39400;SDS011;54391;50.000;7.360;2023-07-13T00:41:20;4.32;;;2.00;;
39400;SDS011;54391;50.000;7.360;2023-07-13T00:43:47;3.97;;;2.25;;
39400;SDS011;54391;50.000;7.360;2023-07-13T00:46:16;3.28;;;1.88;;
39400;SDS011;54391;50.000;7.360;2023-07-13T00:48:46;7.38;;;2.70;;
39400;SDS011;54391;50.000;7.360;2023-07-13T00:51:16;3.90;;;2.00;;
39400;SDS011;54391;50.000;7.360;2023-07-13T00:53:46;3.83;;;2.13;;
39400;SDS011;54391;50.000;7.360;2023-07-13T00:56:13;5.53;;;2.30;;
39400;SDS011;54391;50.000;7.360;2023-07-13T00:58:44;4.30;;;1.85;;
39400;SDS011;54391;50.000;7.360;2023-07-13T01:01:12;6.63;;;2.33;;
39400;SDS011;54391;50.000;7.360;2023-07-13T01:03:40;4.70;;;1.92;;
39400;SDS011;54391;50.000;7.360;2023-07-13T01:06:07;2.92;;;2.00;;
39400;SDS011;54391;50.000;7.360;2023-07-13T01:08:34;5.53;;;1.80;;
39400;SDS011;54391;50.000;7.360;2023-07-13T01:11:02;4.38;;;2.05;;
39400;SDS011;54391;50.000;7.360;2023-07-13T01:13:29;5.40;;;2.03;;
39400;SDS011;54391;50.000;7.360;2023-07-13T01:15:58;6.45;;;1.80;;
39400;SDS011;54391;50.000;7.360;2023-07-13T01:18:30;8.07;;;2.00;;
39400;SDS011;54391;50.000;7.360;2023-07-13T01:21:01;4.90;;;1.40;;
39400;SDS011;54391;50.000;7.360;2023-07-13T01:23:31;5.22;;;1.80;;
39400;SDS011;54391;50.000;7.360;2023-07-13T01:25:58;2.67;;;1.70;;
39400;SDS011;54391;50.000;7.360;2023-07-13T01:28:26;6.63;;;1.83;;
39400;SDS011;54391;50.000;7.360;2023-07-13T01:30:55;4.55;;;1.50;;
39400;SDS011;54391;50.000;7.360;2023-07-13T01:33:24;7.32;;;1.88;;
39400;SDS011;54391;50.000;7.360;2023-07-13T01:35:52;4.97;;;1.70;;
39400;SDS011;54391;50.000;7.360;2023-07-13T01:38:22;1.90;;;1.40;;
39400;SDS011;54391;50.000;7.360;2023-07-13T01:40:50;4.10;;;1.92;;
39400;SDS011;54391;50.000;7.360;2023-07-13T01:43:17;3.85;;;1.60;;
39400;SDS011;54391;50.000;7.360;2023-07-13T01:45:44;4.10;;;1.70;;
39400;SDS011;54391;50.000;7.360;2023-07-13T01:48:12;3.03;;;1.35;;
39400;SDS011;54391;50.000;7.360;2023-07-13T01:50:40;5.65;;;1.75;;
39400;SDS011;54391;50.000;7.360;2023-07-13T01:53:08;2.63;;;1.45;;
39400;SDS011;54391;50.000;7.360;2023-07-13T01:55:37;3.40;;;1.25;;
39400;SDS011;54391;50.000;7.360;2023-07-13T01:58:04;3.63;;;1.40;;
39400;SDS011;54391;50.000;7.360;2023-07-13T02:00:31;5.35;;;1.55;;
39400;SDS011;54391;50.000;7.360;2023-07-13T02:03:01;3.67;;;1.40;;
39400;SDS011;54391;50.000;7.360;2023-07-13T02:05:28;3.03;;;1.52;;
39400;SDS011;54391;50.000;7.360;2023-07-13T02:07:56;3.70;;;1.83;;
39400;SDS011;54391;50.000;7.360;2023-07-13T02:10:23;3.83;;;1.48;;
39400;SDS011;54391;50.000;7.360;2023-07-13T02:12:52;3.00;;;1.60;;
39400;SDS011;54391;50.000;7.360;2023-07-13T02:15:20;5.45;;;2.17;;
39400;SDS011;54391;50.000;7.360;2023-07-13T02:17:47;5.13;;;2.03;;
39400;SDS011;54391;50.000;7.360;2023-07-13T02:20:14;7.15;;;1.73;;
39400;SDS011;54391;50.000;7.360;2023-07-13T02:22:42;4.15;;;1.80;;
39400;SDS011;54391;50.000;7.360;2023-07-13T02:25:09;5.13;;;1.95;;
39400;SDS011;54391;50.000;7.360;2023-07-13T02:27:36;4.25;;;1.75;;
39400;SDS011;54391;50.000;7.360;2023-07-13T02:30:06;5.38;;;1.90;;
39400;SDS011;54391;50.000;7.360;2023-07-13T02:32:33;5.18;;;2.00;;
39400;SDS011;54391;50.000;7.360;2023-07-13T02:35:01;4.70;;;1.88;;
39400;SDS011;54391;50.000;7.360;2023-07-13T02:37:28;5.45;;;2.35;;
39400;SDS011;54391;50.000;7.360;2023-07-13T02:39:56;2.35;;;1.80;;
39400;SDS011;54391;50.000;7.360;2023-07-13T02:42:23;4.80;;;2.05;;
39400;SDS011;54391;50.000;7.360;2023-07-13T02:44:50;3.28;;;1.80;;
39400;SDS011;54391;50.000;7.360;2023-07-13T02:47:19;7.18;;;1.90;;
39400;SDS011;54391;50.000;7.360;2023-07-13T02:49:47;3.33;;;1.98;;
39400;SDS011;54391;50.000;7.360;2023-07-13T02:52:14;2.88;;;1.80;;
39400;SDS011;54391;50.000;7.360;2023-07-13T02:54:41;4.10;;;1.65;;
39400;SDS011;54391;50.000;7.360;2023-07-13T02:57:09;2.85;;;1.73;;
39400;SDS011;54391;50.000;7.360;2023-07-13T02:59:36;5.65;;;1.98;;
39400;SDS011;54391;50.000;7.360;2023-07-13T03:02:04;5.57;;;2.22;;
39400;SDS011;54391;50.000;7.360;2023-07-13T03:04:34;4.22;;;1.95;;
39400;SDS011;54391;50.000;7.360;2023-07-13T03:07:02;6.78;;;2.25;;
39400;SDS011;54391;50.000;7.360;2023-07-13T03:09:35;5.65;;;2.20;;
39400;SDS011;54391;50.000;7.360;2023-07-13T03:12:04;4.80;;;2.20;;
39400;SDS011;54391;50.000;7.360;2023-07-13T03:14:32;5.43;;;2.40;;
39400;SDS011;54391;50.000;7.360;2023-07-13T03:17:04;4.90;;;2.50;;
39400;SDS011;54391;50.000;7.360;2023-07-13T03:19:35;4.97;;;2.28;;
39400;SDS011;54391;50.000;7.360;2023-07-13T03:22:03;4.63;;;2.50;;
39400;SDS011;54391;50.000;7.360;2023-07-13T03:24:32;6.95;;;2.13;;
39400;SDS011;54391;50.000;7.360;2023-07-13T03:27:01;6.43;;;2.47;;
39400;SDS011;54391;50.000;7.360;2023-07-13T03:29:31;6.80;;;2.20;;
39400;SDS011;54391;50.000;7.360;2023-07-13T03:31:59;6.25;;;2.13;;
39400;SDS011;54391;50.000;7.360;2023-07-13T03:34:26;6.22;;;2.00;;
39400;SDS011;54391;50.000;7.360;2023-07-13T03:36:55;3.42;;;2.10;;
39400;SDS011;54391;50.000;7.360;2023-07-13T03:39:23;5.13;;;2.40;;
39400;SDS011;54391;50.000;7.360;2023-07-13T03:41:54;4.43;;;1.80;;
39400;SDS011;54391;50.000;7.360;2023-07-13T03:44:22;5.13;;;2.10;;
39400;SDS011;54391;50.000;7.360;2023-07-13T03:46:53;4.88;;;2.28;;
39400;SDS011;54391;50.000;7.360;2023-07-13T03:49:20;4.80;;;2.10;;
39400;SDS011;54391;50.000;7.360;2023-07-13T03:51:47;4.07;;;2.10;;
39400;SDS011;54391;50.000;7.360;2023-07-13T03:54:16;7.63;;;2.15;;
39400;SDS011;54391;50.000;7.360;2023-07-13T03:56:44;4.57;;;2.00;;
39400;SDS011;54391;50.000;7.360;2023-07-13T03:59:11;6.85;;;2.35;;
39400;SDS011;54391;50.000;7.360;2023-07-13T04:01:39;6.68;;;1.98;;
39400;SDS011;54391;50.000;7.360;2023-07-13T04:04:06;3.10;;;1.60;;
39400;SDS011;54391;50.000;7.360;2023-07-13T04:06:33;4.43;;;1.88;;
39400;SDS011;54391;50.000;7.360;2023-07-13T04:09:01;6.13;;;2.17;;
39400;SDS011;54391;50.000;7.360;2023-07-13T04:11:32;2.78;;;1.70;;
39400;SDS011;54391;50.000;7.360;2023-07-13T04:14:01;3.67;;;1.75;;
39400;SDS011;54391;50.000;7.360;2023-07-13T04:16:29;2.92;;;1.55;;
39400;SDS011;54391;50.000;7.360;2023-07-13T04:18:56;3.72;;;1.70;;
39400;SDS011;54391;50.000;7.360;2023-07-13T04:21:25;9.38;;;3.05;;
39400;SDS011;54391;50.000;7.360;2023-07-13T04:23:52;5.05;;;1.90;;
39400;SDS011;54391;50.000;7.360;2023-07-13T04:26:20;4.88;;;1.90;;
39400;SDS011;54391;50.000;7.360;2023-07-13T04:28:49;3.55;;;1.67;;
39400;SDS011;54391;50.000;7.360;2023-07-13T04:31:17;5.80;;;2.10;;
39400;SDS011;54391;50.000;7.360;2023-07-13T04:33:44;5.05;;;2.20;;
39400;SDS011;54391;50.000;7.360;2023-07-13T04:36:11;8.55;;;2.20;;
39400;SDS011;54391;50.000;7.360;2023-07-13T04:38:39;5.53;;;2.05;;
39400;SDS011;54391;50.000;7.360;2023-07-13T04:41:07;4.65;;;1.92;;
39400;SDS011;54391;50.000;7.360;2023-07-13T04:43:35;4.43;;;2.30;;
39400;SDS011;54391;50.000;7.360;2023-07-13T04:46:04;3.30;;;1.60;;
39400;SDS011;54391;50.000;7.360;2023-07-13T04:48:33;7.88;;;2.50;;
39400;SDS011;54391;50.000;7.360;2023-07-13T04:51:00;7.22;;;2.30;;
39400;SDS011;54391;50.000;7.360;2023-07-13T04:53:28;3.72;;;2.17;;
39400;SDS011;54391;50.000;7.360;2023-07-13T04:55:57;7.32;;;1.77;;
39400;SDS011;54391;50.000;7.360;2023-07-13T04:58:24;2.72;;;1.63;;
39400;SDS011;54391;50.000;7.360;2023-07-13T05:00:52;5.47;;;1.92;;
39400;SDS011;54391;50.000;7.360;2023-07-13T05:03:21;2.72;;;1.60;;
39400;SDS011;54391;50.000;7.360;2023-07-13T05:05:55;7.13;;;1.95;;
39400;SDS011;54391;50.000;7.360;2023-07-13T05:08:23;5.18;;;1.70;;
39400;SDS011;54391;50.000;7.360;2023-07-13T05:10:51;4.03;;;1.42;;
39400;SDS011;54391;50.000;7.360;2023-07-13T05:13:18;5.13;;;1.60;;
39400;SDS011;54391;50.000;7.360;2023-07-13T05:15:47;3.47;;;1.73;;
39400;SDS011;54391;50.000;7.360;2023-07-13T05:18:22;4.80;;;1.50;;
39400;SDS011;54391;50.000;7.360;2023-07-13T05:20:56;2.47;;;1.23;;
39400;SDS011;54391;50.000;7.360;2023-07-13T05:23:24;2.92;;;1.50;;
39400;SDS011;54391;50.000;7.360;2023-07-13T05:25:52;4.40;;;1.65;;
39400;SDS011;54391;50.000;7.360;2023-07-13T05:28:19;2.40;;;1.40;;
39400;SDS011;54391;50.000;7.360;2023-07-13T05:30:47;3.50;;;1.40;;
39400;SDS011;54391;50.000;7.360;2023-07-13T05:33:14;5.82;;;1.88;;
39400;SDS011;54391;50.000;7.360;2023-07-13T05:35:43;2.65;;;1.60;;
39400;SDS011;54391;50.000;7.360;2023-07-13T05:38:10;3.30;;;1.70;;
39400;SDS011;54391;50.000;7.360;2023-07-13T05:40:37;3.70;;;1.50;;
39400;SDS011;54391;50.000;7.360;2023-07-13T05:43:05;5.57;;;1.83;;
39400;SDS011;54391;50.000;7.360;2023-07-13T05:45:32;4.72;;;1.40;;
39400;SDS011;54391;50.000;7.360;2023-07-13T05:47:59;3.85;;;1.88;;
39400;SDS011;54391;50.000;7.360;2023-07-13T05:50:26;5.25;;;1.60;;
39400;SDS011;54391;50.000;7.360;2023-07-13T05:52:55;5.35;;;1.60;;
39400;SDS011;54391;50.000;7.360;2023-07-13T05:55:22;4.07;;;1.23;;
39400;SDS011;54391;50.000;7.360;2023-07-13T05:57:50;4.47;;;1.58;;
39400;SDS011;54391;50.000;7.360;2023-07-13T06:00:17;5.82;;;1.70;;
39400;SDS011;54391;50.000;7.360;2023-07-13T06:02:44;4.18;;;1.52;;
39400;SDS011;54391;50.000;7.360;2023-07-13T06:05:12;2.67;;;1.58;;
39400;SDS011;54391;50.000;7.360;2023-07-13T06:07:40;3.65;;;1.17;;
39400;SDS011;54391;50.000;7.360;2023-07-13T06:10:09;3.63;;;1.67;;
39400;SDS011;54391;50.000;7.360;2023-07-13T06:12:37;4.85;;;1.48;;
39400;SDS011;54391;50.000;7.360;2023-07-13T06:15:04;3.80;;;1.20;;
39400;SDS011;54391;50.000;7.360;2023-07-13T06:17:32;5.57;;;1.38;;
39400;SDS011;54391;50.000;7.360;2023-07-13T06:20:00;5.20;;;1.70;;
39400;SDS011;54391;50.000;7.360;2023-07-13T06:22:27;9.05;;;1.30;;
39400;SDS011;54391;50.000;7.360;2023-07-13T06:24:54;3.85;;;1.25;;
39400;SDS011;54391;50.000;7.360;2023-07-13T06:27:23;6.38;;;1.70;;
39400;SDS011;54391;50.000;7.360;2023-07-13T06:29:50;6.55;;;1.17;;
39400;SDS011;54391;50.000;7.360;2023-07-13T06:32:17;4.07;;;1.13;;
39400;SDS011;54391;50.000;7.360;2023-07-13T06:34:45;4.03;;;1.08;;
39400;SDS011;54391;50.000;7.360;2023-07-13T06:37:12;2.45;;;1.08;;
39400;SDS011;54391;50.000;7.360;2023-07-13T06:39:39;1.63;;;1.00;;
39400;SDS011;54391;50.000;7.360;2023-07-13T06:42:06;3.58;;;1.15;;
39400;SDS011;54391;50.000;7.360;2023-07-13T06:44:35;2.75;;;1.13;;
39400;SDS011;54391;50.000;7.360;2023-07-13T06:47:02;4.95;;;0.93;;
39400;SDS011;54391;50.000;7.360;2023-07-13T06:49:30;3.15;;;1.10;;
39400;SDS011;54391;50.000;7.360;2023-07-13T06:51:57;2.85;;;1.23;;
39400;SDS011;54391;50.000;7.360;2023-07-13T06:54:24;3.67;;;1.10;;
39400;SDS011;54391;50.000;7.360;2023-07-13T06:56:52;3.17;;;1.00;;
39400;SDS011;54391;50.000;7.360;2023-07-13T06:59:19;3.45;;;1.05;;
39400;SDS011;54391;50.000;7.360;2023-07-13T07:01:48;5.57;;;1.92;;
39400;SDS011;54391;50.000;7.360;2023-07-13T07:04:15;2.28;;;1.02;;
39400;SDS011;54391;50.000;7.360;2023-07-13T07:06:42;2.35;;;1.27;;
39400;SDS011;54391;50.000;7.360;2023-07-13T07:09:11;2.72;;;1.13;;
39400;SDS011;54391;50.000;7.360;2023-07-13T07:11:38;3.28;;;0.82;;
39400;SDS011;54391;50.000;7.360;2023-07-13T07:14:07;6.68;;;1.38;;
39400;SDS011;54391;50.000;7.360;2023-07-13T07:16:34;3.15;;;1.00;;
39400;SDS011;54391;50.000;7.360;2023-07-13T07:19:03;5.90;;;1.08;;
39400;SDS011;54391;50.000;7.360;2023-07-13T07:21:30;4.30;;;1.40;;
39400;SDS011;54391;50.000;7.360;2023-07-13T07:23:57;4.38;;;1.25;;
39400;SDS011;54391;50.000;7.360;2023-07-13T07:26:25;3.22;;;1.25;;
39400;SDS011;54391;50.000;7.360;2023-07-13T07:28:52;3.78;;;0.90;;
39400;SDS011;54391;50.000;7.360;2023-07-13T07:31:19;3.42;;;1.38;;
39400;SDS011;54391;50.000;7.360;2023-07-13T07:33:47;2.60;;;1.35;;
39400;SDS011;54391;50.000;7.360;2023-07-13T07:36:16;3.28;;;1.02;;
39400;SDS011;54391;50.000;7.360;2023-07-13T07:38:43;4.85;;;1.50;;
39400;SDS011;54391;50.000;7.360;2023-07-13T07:41:12;2.35;;;1.02;;
39400;SDS011;54391;50.000;7.360;2023-07-13T07:43:39;5.25;;;1.30;;
39400;SDS011;54391;50.000;7.360;2023-07-13T07:46:07;1.75;;;0.90;;
39400;SDS011;54391;50.000;7.360;2023-07-13T07:48:34;1.83;;;1.00;;
39400;SDS011;54391;50.000;7.360;2023-07-13T07:51:01;3.10;;;1.23;;
39400;SDS011;54391;50.000;7.360;2023-07-13T07:53:30;3.42;;;1.10;;
39400;SDS011;54391;50.000;7.360;2023-07-13T07:55:57;2.50;;;1.40;;
39400;SDS011;54391;50.000;7.360;2023-07-13T07:58:24;4.00;;;1.02;;
39400;SDS011;54391;50.000;7.360;2023-07-13T08:00:52;4.63;;;0.95;;
39400;SDS011;54391;50.000;7.360;2023-07-13T08:03:19;5.20;;;1.00;;
39400;SDS011;54391;50.000;7.360;2023-07-13T08:05:46;2.45;;;1.17;;
39400;SDS011;54391;50.000;7.360;2023-07-13T08:08:15;3.78;;;1.00;;
39400;SDS011;54391;50.000;7.360;2023-07-13T08:10:43;2.88;;;0.88;;
39400;SDS011;54391;50.000;7.360;2023-07-13T08:13:10;3.63;;;1.33;;
39400;SDS011;54391;50.000;7.360;2023-07-13T08:15:38;3.67;;;1.20;;
39400;SDS011;54391;50.000;7.360;2023-07-13T08:18:05;3.40;;;0.95;;
39400;SDS011;54391;50.000;7.360;2023-07-13T08:20:36;5.38;;;1.30;;
39400;SDS011;54391;50.000;7.360;2023-07-13T08:23:04;2.20;;;0.90;;
39400;SDS011;54391;50.000;7.360;2023-07-13T08:25:31;4.43;;;1.30;;
39400;SDS011;54391;50.000;7.360;2023-07-13T08:27:59;2.67;;;1.00;;
39400;SDS011;54391;50.000;7.360;2023-07-13T08:30:26;3.40;;;1.20;;
39400;SDS011;54391;50.000;7.360;2023-07-13T08:32:54;4.75;;;1.20;;
39400;SDS011;54391;50.000;7.360;2023-07-13T08:35:21;6.15;;;1.27;;
39400;SDS011;54391;50.000;7.360;2023-07-13T08:37:50;4.03;;;1.00;;
39400;SDS011;54391;50.000;7.360;2023-07-13T08:40:18;2.72;;;1.15;;
39400;SDS011;54391;50.000;7.360;2023-07-13T08:42:51;4.40;;;1.33;;
39400;SDS011;54391;50.000;7.360;2023-07-13T08:45:22;3.72;;;1.40;;
39400;SDS011;54391;50.000;7.360;2023-07-13T08:47:54;3.67;;;1.00;;
39400;SDS011;54391;50.000;7.360;2023-07-13T08:50:27;1.52;;;0.85;;
39400;SDS011;54391;50.000;7.360;2023-07-13T08:52:59;1.83;;;0.65;;
39400;SDS011;54391;50.000;7.360;2023-07-13T08:55:30;3.45;;;1.05;;
39400;SDS011;54391;50.000;7.360;2023-07-13T08:58:04;3.72;;;0.93;;
39400;SDS011;54391;50.000;7.360;2023-07-13T09:00:41;5.78;;;0.90;;
39400;SDS011;54391;50.000;7.360;2023-07-13T09:03:15;2.08;;;0.90;;
39400;SDS011;54391;50.000;7.360;2023-07-13T09:05:47;8.65;;;4.85;;
39400;SDS011;54391;50.000;7.360;2023-07-13T09:08:26;3.13;;;1.05;;
39400;SDS011;54391;50.000;7.360;2023-07-13T09:11:07;1.50;;;0.75;;
39400;SDS011;54391;50.000;7.360;2023-07-13T09:13:47;2.80;;;0.82;;
39400;SDS011;54391;50.000;7.360;2023-07-13T09:16:30;3.97;;;1.17;;
39400;SDS011;54391;50.000;7.360;2023-07-13T09:18:59;5.22;;;1.20;;
39400;SDS011;54391;50.000;7.360;2023-07-13T09:21:32;1.92;;;0.80;;
39400;SDS011;54391;50.000;7.360;2023-07-13T09:24:06;2.33;;;0.88;;
39400;SDS011;54391;50.000;7.360;2023-07-13T09:26:52;4.30;;;1.30;;
39400;SDS011;54391;50.000;7.360;2023-07-13T09:29:22;2.78;;;0.68;;
39400;SDS011;54391;50.000;7.360;2023-07-13T09:31:57;3.08;;;1.00;;
39400;SDS011;54391;50.000;7.360;2023-07-13T09:34:28;1.95;;;0.60;;
39400;SDS011;54391;50.000;7.360;2023-07-13T09:36:56;1.98;;;0.80;;
39400;SDS011;54391;50.000;7.360;2023-07-13T09:39:24;2.55;;;0.80;;
39400;SDS011;54391;50.000;7.360;2023-07-13T09:42:00;2.83;;;0.98;;
39400;SDS011;54391;50.000;7.360;2023-07-13T09:44:34;1.70;;;0.80;;
39400;SDS011;54391;50.000;7.360;2023-07-13T09:47:12;4.43;;;0.93;;
39400;SDS011;54391;50.000;7.360;2023-07-13T09:49:43;1.45;;;0.68;;
39400;SDS011;54391;50.000;7.360;2023-07-13T09:52:12;1.60;;;0.73;;
39400;SDS011;54391;50.000;7.360;2023-07-13T09:54:44;1.63;;;0.68;;
39400;SDS011;54391;50.000;7.360;2023-07-13T09:57:15;2.58;;;1.15;;
39400;SDS011;54391;50.000;7.360;2023-07-13T09:59:44;6.47;;;1.27;;
39400;SDS011;54391;50.000;7.360;2023-07-13T10:02:24;3.60;;;1.20;;
39400;SDS011;54391;50.000;7.360;2023-07-13T10:04:55;2.80;;;0.60;;
39400;SDS011;54391;50.000;7.360;2023-07-13T10:07:23;2.75;;;1.02;;
39400;SDS011;54391;50.000;7.360;2023-07-13T10:09:51;4.38;;;1.05;;
39400;SDS011;54391;50.000;7.360;2023-07-13T10:12:19;1.90;;;0.70;;
39400;SDS011;54391;50.000;7.360;2023-07-13T10:14:48;3.42;;;0.90;;
39400;SDS011;54391;50.000;7.360;2023-07-13T10:17:21;4.60;;;1.02;;
39400;SDS011;54391;50.000;7.360;2023-07-13T10:19:57;2.58;;;0.90;;
39400;SDS011;54391;50.000;7.360;2023-07-13T10:22:32;5.60;;;0.95;;
39400;SDS011;54391;50.000;7.360;2023-07-13T10:25:12;5.13;;;0.82;;
39400;SDS011;54391;50.000;7.360;2023-07-13T10:27:42;4.25;;;0.82;;
39400;SDS011;54391;50.000;7.360;2023-07-13T10:30:12;3.47;;;1.20;;
39400;SDS011;54391;50.000;7.360;2023-07-13T10:32:44;4.40;;;1.40;;
39400;SDS011;54391;50.000;7.360;2023-07-13T10:35:12;3.35;;;1.05;;
39400;SDS011;54391;50.000;7.360;2023-07-13T10:37:44;3.33;;;1.00;;
39400;SDS011;54391;50.000;7.360;2023-07-13T10:40:16;1.70;;;0.95;;
39400;SDS011;54391;50.000;7.360;2023-07-13T10:42:49;2.63;;;0.80;;
39400;SDS011;54391;50.000;7.360;2023-07-13T10:45:20;1.55;;;0.75;;
39400;SDS011;54391;50.000;7.360;2023-07-13T10:47:51;2.88;;;1.02;;
39400;SDS011;54391;50.000;7.360;2023-07-13T10:50:21;3.83;;;0.80;;
39400;SDS011;54391;50.000;7.360;2023-07-13T10:52:52;5.70;;;1.30;;
39400;SDS011;54391;50.000;7.360;2023-07-13T10:55:31;1.50;;;0.75;;
39400;SDS011;54391;50.000;7.360;2023-07-13T10:58:03;3.78;;;0.77;;
39400;SDS011;54391;50.000;7.360;2023-07-13T11:00:49;3.25;;;1.08;;
39400;SDS011;54391;50.000;7.360;2023-07-13T11:03:21;4.38;;;1.10;;
39400;SDS011;54391;50.000;7.360;2023-07-13T11:06:04;3.33;;;0.90;;
39400;SDS011;54391;50.000;7.360;2023-07-13T11:08:36;4.25;;;1.00;;
39400;SDS011;54391;50.000;7.360;2023-07-13T11:11:04;2.78;;;0.93;;
39400;SDS011;54391;50.000;7.360;2023-07-13T11:14:05;2.33;;;0.77;;
39400;SDS011;54391;50.000;7.360;2023-07-13T11:16:52;1.35;;;0.70;;
39400;SDS011;54391;50.000;7.360;2023-07-13T11:22:23;2.58;;;0.80;;
39400;SDS011;54391;50.000;7.360;2023-07-13T11:24:54;2.70;;;1.00;;
39400;SDS011;54391;50.000;7.360;2023-07-13T11:30:24;2.50;;;0.60;;
39400;SDS011;54391;50.000;7.360;2023-07-13T11:33:09;1.65;;;0.70;;
39400;SDS011;54391;50.000;7.360;2023-07-13T11:35:46;2.35;;;0.98;;
39400;SDS011;54391;50.000;7.360;2023-07-13T11:38:28;4.03;;;0.95;;
39400;SDS011;54391;50.000;7.360;2023-07-13T11:40:59;3.47;;;0.90;;
39400;SDS011;54391;50.000;7.360;2023-07-13T11:43:29;2.80;;;1.13;;
39400;SDS011;54391;50.000;7.360;2023-07-13T11:45:59;1.45;;;0.70;;
39400;SDS011;54391;50.000;7.360;2023-07-13T11:48:40;1.30;;;0.80;;
39400;SDS011;54391;50.000;7.360;2023-07-13T11:51:09;2.58;;;0.80;;
39400;SDS011;54391;50.000;7.360;2023-07-13T11:53:46;1.40;;;0.80;;
39400;SDS011;54391;50.000;7.360;2023-07-13T11:56:15;2.55;;;0.85;;
39400;SDS011;54391;50.000;7.360;2023-07-13T11:58:43;2.45;;;1.10;;
39400;SDS011;54391;50.000;7.360;2023-07-13T12:01:16;3.28;;;0.93;;
39400;SDS011;54391;50.000;7.360;2023-07-13T12:03:47;2.88;;;0.93;;
39400;SDS011;54391;50.000;7.360;2023-07-13T12:06:23;3.65;;;1.30;;
39400;SDS011;54391;50.000;7.360;2023-07-13T12:08:57;3.22;;;1.00;;
39400;SDS011;54391;50.000;7.360;2023-07-13T12:11:26;2.22;;;0.90;;
39400;SDS011;54391;50.000;7.360;2023-07-13T12:13:53;3.83;;;1.00;;
39400;SDS011;54391;50.000;7.360;2023-07-13T12:16:26;2.47;;;0.90;;
39400;SDS011;54391;50.000;7.360;2023-07-13T12:18:55;2.20;;;1.30;;
39400;SDS011;54391;50.000;7.360;2023-07-13T12:21:26;1.40;;;0.75;;
39400;SDS011;54391;50.000;7.360;2023-07-13T12:23:57;3.50;;;1.23;;
39400;SDS011;54391;50.000;7.360;2023-07-13T12:26:27;2.03;;;1.20;;
39400;SDS011;54391;50.000;7.360;2023-07-13T12:28:55;4.50;;;1.10;;
39400;SDS011;54391;50.000;7.360;2023-07-13T12:31:29;3.28;;;1.40;;
39400;SDS011;54391;50.000;7.360;2023-07-13T12:34:01;2.95;;;0.90;;
39400;SDS011;54391;50.000;7.360;2023-07-13T12:36:31;6.55;;;0.95;;
39400;SDS011;54391;50.000;7.360;2023-07-13T12:39:00;3.08;;;0.80;;
39400;SDS011;54391;50.000;7.360;2023-07-13T12:41:33;5.40;;;1.27;;
39400;SDS011;54391;50.000;7.360;2023-07-13T12:44:00;3.25;;;1.00;;
39400;SDS011;54391;50.000;7.360;2023-07-13T12:46:28;4.30;;;0.90;;
39400;SDS011;54391;50.000;7.360;2023-07-13T12:48:56;6.85;;;1.00;;
39400;SDS011;54391;50.000;7.360;2023-07-13T12:51:26;3.67;;;1.05;;
39400;SDS011;54391;50.000;7.360;2023-07-13T12:53:58;1.98;;;0.98;;
39400;SDS011;54391;50.000;7.360;2023-07-13T12:56:31;1.70;;;0.80;;
39400;SDS011;54391;50.000;7.360;2023-07-13T12:59:01;3.25;;;1.38;;
39400;SDS011;54391;50.000;7.360;2023-07-13T13:01:32;2.22;;;1.00;;
39400;SDS011;54391;50.000;7.360;2023-07-13T13:04:02;3.97;;;1.00;;
39400;SDS011;54391;50.000;7.360;2023-07-13T13:06:32;2.30;;;0.80;;
39400;SDS011;54391;50.000;7.360;2023-07-13T13:09:02;3.03;;;0.90;;
39400;SDS011;54391;50.000;7.360;2023-07-13T13:11:35;1.63;;;1.00;;
39400;SDS011;54391;50.000;7.360;2023-07-13T13:14:03;2.13;;;0.85;;
39400;SDS011;54391;50.000;7.360;2023-07-13T13:16:31;1.88;;;0.85;;
39400;SDS011;54391;50.000;7.360;2023-07-13T13:19:00;2.72;;;0.80;;
39400;SDS011;54391;50.000;7.360;2023-07-13T13:21:37;1.85;;;0.98;;
39400;SDS011;54391;50.000;7.360;2023-07-13T13:24:10;2.25;;;0.80;;
39400;SDS011;54391;50.000;7.360;2023-07-13T13:26:38;1.55;;;0.93;;
39400;SDS011;54391;50.000;7.360;2023-07-13T13:29:09;2.85;;;0.80;;
39400;SDS011;54391;50.000;7.360;2023-07-13T13:31:39;2.33;;;0.85;;
39400;SDS011;54391;50.000;7.360;2023-07-13T13:34:08;3.55;;;0.85;;
39400;SDS011;54391;50.000;7.360;2023-07-13T13:36:36;1.92;;;0.80;;
39400;SDS011;54391;50.000;7.360;2023-07-13T13:39:05;2.05;;;0.77;;
39400;SDS011;54391;50.000;7.360;2023-07-13T13:41:42;1.63;;;0.85;;
39400;SDS011;54391;50.000;7.360;2023-07-13T13:44:09;2.45;;;0.82;;
39400;SDS011;54391;50.000;7.360;2023-07-13T13:46:37;3.10;;;0.95;;
39400;SDS011;54391;50.000;7.360;2023-07-13T13:49:04;2.53;;;0.88;;
39400;SDS011;54391;50.000;7.360;2023-07-13T13:51:31;3.78;;;0.82;;
39400;SDS011;54391;50.000;7.360;2023-07-13T13:53:59;1.90;;;0.93;;
39400;SDS011;54391;50.000;7.360;2023-07-13T13:56:28;2.03;;;1.42;;
39400;SDS011;54391;50.000;7.360;2023-07-13T13:58:55;2.20;;;0.88;;
39400;SDS011;54391;50.000;7.360;2023-07-13T14:01:23;3.20;;;0.80;;
39400;SDS011;54391;50.000;7.360;2023-07-13T14:03:50;1.48;;;0.73;;
39400;SDS011;54391;50.000;7.360;2023-07-13T14:06:18;4.18;;;1.00;;
39400;SDS011;54391;50.000;7.360;2023-07-13T14:08:45;1.80;;;0.70;;
39400;SDS011;54391;50.000;7.360;2023-07-13T14:11:13;1.35;;;0.90;;
39400;SDS011;54391;50.000;7.360;2023-07-13T14:13:44;5.32;;;1.10;;
39400;SDS011;54391;50.000;7.360;2023-07-13T14:16:15;1.90;;;0.82;;
39400;SDS011;54391;50.000;7.360;2023-07-13T14:18:43;2.83;;;1.13;;
39400;SDS011;54391;50.000;7.360;2023-07-13T14:21:12;2.58;;;0.70;;
39400;SDS011;54391;50.000;7.360;2023-07-13T14:23:40;3.72;;;1.10;;
39400;SDS011;54391;50.000;7.360;2023-07-13T14:26:11;3.22;;;1.20;;
39400;SDS011;54391;50.000;7.360;2023-07-13T14:28:39;2.22;;;1.10;;
39400;SDS011;54391;50.000;7.360;2023-07-13T14:31:10;2.50;;;0.80;;
39400;SDS011;54391;50.000;7.360;2023-07-13T14:33:38;2.75;;;1.00;;
39400;SDS011;54391;50.000;7.360;2023-07-13T14:36:09;1.77;;;0.80;;
39400;SDS011;54391;50.000;7.360;2023-07-13T14:38:49;2.40;;;0.95;;
39400;SDS011;54391;50.000;7.360;2023-07-13T14:41:17;2.30;;;0.75;;
39400;SDS011;54391;50.000;7.360;2023-07-13T14:43:44;2.60;;;0.90;;
39400;SDS011;54391;50.000;7.360;2023-07-13T14:46:18;2.53;;;0.98;;
39400;SDS011;54391;50.000;7.360;2023-07-13T14:48:53;3.28;;;0.77;;
39400;SDS011;54391;50.000;7.360;2023-07-13T14:51:27;3.53;;;0.93;;
39400;SDS011;54391;50.000;7.360;2023-07-13T14:53:55;1.85;;;0.90;;
39400;SDS011;54391;50.000;7.360;2023-07-13T14:56:22;2.33;;;0.88;;
39400;SDS011;54391;50.000;7.360;2023-07-13T14:58:49;3.05;;;1.17;;
39400;SDS011;54391;50.000;7.360;2023-07-13T15:01:19;5.20;;;1.10;;
39400;SDS011;54391;50.000;7.360;2023-07-13T15:03:48;6.00;;;1.17;;
39400;SDS011;54391;50.000;7.360;2023-07-13T15:06:16;3.58;;;0.90;;
39400;SDS011;54391;50.000;7.360;2023-07-13T15:08:44;3.03;;;0.90;;